Time;durP1;ratioP1;P1;durP2;ratioP2;P2;SDS_P1;SDS_P2;PMS_P1;PMS_P2;Temp;Humidity;BMP_temperature;BMP_pressure;BME280_temperature;BME280_humidity;BME280_pressure;Samples;Min_cycle;Max_cycle;Signal;HPM_P1;HPM_P2
2024/03/12 00:00:18;;;;;;;37.38;21.02;;;13.30;95.80;;;;;;5067595;28;20085;-82
2024/03/12 00:02:46;;;;;;;40.55;22.05;;;13.30;95.80;;;;;;5064934;28;20016;-81
2024/03/12 00:05:13;;;;;;;44.70;22.52;;;13.40;95.80;;;;;;5055487;28;20143;-81
2024/03/12 00:07:42;;;;;;;40.55;21.95;;;13.40;95.80;;;;;;5054874;28;20032;-81
2024/03/12 00:10:09;;;;;;;38.95;21.67;;;13.40;95.70;;;;;;5049581;28;20566;-80
2024/03/12 00:12:43;;;;;;;36.38;20.77;;;13.50;95.70;;;;;;5061905;28;20813;-82
2024/03/12 00:15:10;;;;;;;40.80;22.95;;;13.50;95.60;;;;;;5062181;28;20051;-81
2024/03/12 00:17:39;;;;;;;40.47;22.35;;;13.50;95.50;;;;;;5056739;28;20848;-82
2024/03/12 00:20:15;;;;;;;38.28;22.42;;;13.60;95.50;;;;;;5057555;28;20082;-81
2024/03/12 00:22:43;;;;;;;39.70;20.95;;;13.60;95.40;;;;;;5061227;28;20028;-81
2024/03/12 00:25:09;;;;;;;41.28;22.23;;;13.60;95.40;;;;;;5061849;28;20102;-81
2024/03/12 00:27:35;;;;;;;44.97;24.02;;;13.60;95.30;;;;;;5055297;28;20041;-81
2024/03/12 00:30:02;;;;;;;40.58;21.60;;;13.60;95.20;;;;;;5057614;28;20051;-81
2024/03/12 00:32:27;;;;;;;39.88;20.60;;;13.60;95.30;;;;;;5055590;28;20028;-81
2024/03/12 00:34:54;;;;;;;39.97;20.65;;;13.70;95.20;;;;;;5062859;28;20043;-81
2024/03/12 00:37:20;;;;;;;42.22;21.95;;;13.70;95.20;;;;;;5050046;28;20025;-81
2024/03/12 00:39:46;;;;;;;41.25;22.77;;;13.60;95.10;;;;;;5065942;28;20040;-81
2024/03/12 00:42:14;;;;;;;42.80;23.77;;;13.60;95.10;;;;;;5054378;28;20039;-81
2024/03/12 00:44:40;;;;;;;50.40;25.23;;;13.70;95.10;;;;;;5059329;28;20161;-81
2024/03/12 00:47:05;;;;;;;40.15;22.08;;;13.70;95.00;;;;;;5050871;28;20115;-81
2024/03/12 00:49:31;;;;;;;42.97;22.60;;;13.70;95.00;;;;;;5066367;28;20383;-82
2024/03/12 00:51:56;;;;;;;40.90;22.67;;;13.70;95.00;;;;;;5063076;28;20032;-81
2024/03/12 00:54:22;;;;;;;40.30;23.33;;;13.70;95.00;;;;;;5060595;28;20051;-81
2024/03/12 00:56:49;;;;;;;41.78;23.55;;;13.70;95.00;;;;;;5061733;28;20036;-82
2024/03/12 00:59:16;;;;;;;41.63;23.83;;;13.70;95.00;;;;;;5063751;28;20103;-81
2024/03/12 01:01:41;;;;;;;43.97;22.88;;;13.70;95.00;;;;;;5060212;28;20060;-80
2024/03/12 01:04:07;;;;;;;47.80;25.50;;;13.70;95.00;;;;;;5059682;28;20624;-82
2024/03/12 01:06:34;;;;;;;42.45;22.88;;;13.70;95.00;;;;;;5067206;28;20036;-82
2024/03/12 01:09:06;;;;;;;45.35;23.95;;;13.80;95.10;;;;;;5053408;28;20024;-81
2024/03/12 01:11:32;;;;;;;42.42;22.27;;;13.80;95.00;;;;;;5057307;28;20117;-81
2024/03/12 01:13:58;;;;;;;41.55;21.85;;;13.80;95.00;;;;;;5047964;28;20033;-81
2024/03/12 01:16:24;;;;;;;41.20;22.95;;;13.70;94.90;;;;;;5049044;28;20396;-81
2024/03/12 01:18:50;;;;;;;48.08;25.02;;;13.70;94.90;;;;;;5059801;28;20074;-81
2024/03/12 01:21:15;;;;;;;43.08;24.70;;;13.70;94.90;;;;;;5057246;28;20040;-81
2024/03/12 01:23:41;;;;;;;48.17;25.83;;;13.70;95.00;;;;;;5065225;28;20039;-81
2024/03/12 01:26:07;;;;;;;44.63;23.58;;;13.70;95.00;;;;;;5068299;28;20095;-81
2024/03/12 01:28:34;;;;;;;47.35;22.73;;;13.70;95.00;;;;;;5065410;28;20039;-82
2024/03/12 01:31:00;;;;;;;50.63;25.48;;;13.70;95.00;;;;;;5067668;28;20047;-81
2024/03/12 01:33:27;;;;;;;46.10;23.95;;;13.70;95.00;;;;;;5061142;28;20443;-81
2024/03/12 01:36:05;;;;;;;47.78;25.00;;;13.70;95.00;;;;;;5047581;28;20037;-81
2024/03/12 01:38:34;;;;;;;46.40;24.55;;;13.70;95.00;;;;;;5050613;28;20392;-81
2024/03/12 01:41:05;;;;;;;48.40;26.70;;;13.70;95.00;;;;;;5065322;28;20186;-81
2024/03/12 01:43:31;;;;;;;46.85;24.48;;;13.70;95.00;;;;;;5058770;28;20042;-80
2024/03/12 01:45:58;;;;;;;45.75;24.23;;;13.70;94.90;;;;;;5054131;28;20025;-81
2024/03/12 01:48:24;;;;;;;46.45;24.52;;;13.70;94.90;;;;;;5057132;28;20048;-80
2024/03/12 01:50:50;;;;;;;54.35;26.52;;;13.80;94.90;;;;;;5054897;28;20033;-81
2024/03/12 01:53:16;;;;;;;48.38;23.67;;;13.80;94.80;;;;;;5053633;28;20046;-81
2024/03/12 01:55:42;;;;;;;46.03;23.15;;;13.80;94.80;;;;;;5065987;28;20048;-81
2024/03/12 01:58:18;;;;;;;52.13;26.45;;;13.80;94.80;;;;;;5065724;28;20539;-81
2024/03/12 02:00:45;;;;;;;50.15;26.45;;;13.80;94.80;;;;;;5066883;28;20025;-81
2024/03/12 02:03:10;;;;;;;47.70;25.27;;;13.80;94.90;;;;;;5060676;28;20456;-81
2024/03/12 02:05:36;;;;;;;46.83;24.58;;;13.80;94.80;;;;;;5057861;28;20052;-81
2024/03/12 02:08:02;;;;;;;47.28;24.70;;;13.80;94.90;;;;;;5055873;28;20025;-81
2024/03/12 02:10:27;;;;;;;49.13;26.27;;;13.80;94.90;;;;;;5059272;28;20762;-81
2024/03/12 02:12:54;;;;;;;53.22;26.95;;;13.80;94.90;;;;;;5054505;28;20037;-82
2024/03/12 02:15:22;;;;;;;54.30;28.48;;;13.80;94.90;;;;;;5059355;28;20051;-80
2024/03/12 02:17:51;;;;;;;53.35;26.67;;;13.70;94.80;;;;;;5061855;28;20116;-80
2024/03/12 02:20:17;;;;;;;53.70;26.90;;;13.70;94.90;;;;;;5053017;28;20068;-80
2024/03/12 02:22:43;;;;;;;53.90;27.27;;;13.60;95.00;;;;;;5064441;28;20078;-80
2024/03/12 02:25:12;;;;;;;44.70;25.65;;;13.60;95.10;;;;;;5055276;28;20112;-80
2024/03/12 02:27:39;;;;;;;52.33;26.15;;;13.50;95.10;;;;;;5051279;28;20033;-80
2024/03/12 02:30:09;;;;;;;52.22;26.42;;;13.60;95.00;;;;;;5049534;28;20041;-80
2024/03/12 02:32:36;;;;;;;53.42;26.30;;;13.60;94.90;;;;;;5063227;28;20056;-80
2024/03/12 02:35:02;;;;;;;55.65;27.38;;;13.60;94.80;;;;;;5067826;28;20420;-80
2024/03/12 02:37:27;;;;;;;50.20;25.83;;;13.60;94.80;;;;;;5053634;28;20044;-80
2024/03/12 02:39:53;;;;;;;50.83;26.38;;;13.60;94.90;;;;;;5058360;28;20028;-80
2024/03/12 02:42:19;;;;;;;56.97;27.00;;;13.60;94.90;;;;;;5065972;28;20139;-80
2024/03/12 02:44:44;;;;;;;57.15;25.17;;;13.50;94.80;;;;;;5064924;28;20475;-79
2024/03/12 02:47:10;;;;;;;50.67;25.17;;;13.60;94.80;;;;;;5049389;28;20025;-80
2024/03/12 02:49:36;;;;;;;54.00;26.52;;;13.60;94.80;;;;;;5051666;28;20396;-80
2024/03/12 02:52:03;;;;;;;50.05;25.33;;;13.60;94.80;;;;;;5067972;28;20376;-79
2024/03/12 02:54:28;;;;;;;51.13;26.58;;;13.60;94.80;;;;;;5066587;28;20487;-80
2024/03/12 02:56:57;;;;;;;48.50;26.40;;;13.60;94.80;;;;;;5063955;28;20025;-79
2024/03/12 02:59:27;;;;;;;55.13;27.42;;;13.60;94.80;;;;;;5058574;28;20037;-79
2024/03/12 03:01:52;;;;;;;51.10;25.88;;;13.60;94.80;;;;;;5051268;28;20848;-79
2024/03/12 03:04:21;;;;;;;49.50;23.70;;;13.50;94.80;;;;;;5060585;28;20128;-79
2024/03/12 03:06:50;;;;;;;53.13;25.70;;;13.60;94.80;;;;;;5063479;28;20020;-80
2024/03/12 03:09:16;;;;;;;46.60;25.17;;;13.50;94.80;;;;;;5069948;28;20067;-80
2024/03/12 03:11:42;;;;;;;48.17;23.98;;;13.60;94.70;;;;;;5068277;28;20157;-80
2024/03/12 03:14:07;;;;;;;51.28;26.02;;;13.70;94.70;;;;;;5063473;28;20024;-79
2024/03/12 03:16:33;;;;;;;55.03;26.45;;;13.70;94.60;;;;;;5061601;28;20472;-80
2024/03/12 03:18:59;;;;;;;53.60;25.38;;;13.60;94.50;;;;;;5060997;28;20029;-80
2024/03/12 03:21:25;;;;;;;52.38;26.75;;;13.70;94.50;;;;;;5062016;28;20040;-80
2024/03/12 03:23:51;;;;;;;52.05;25.27;;;13.60;94.50;;;;;;5057235;28;20039;-80
2024/03/12 03:26:17;;;;;;;60.13;26.23;;;13.60;94.60;;;;;;5054821;28;20791;-80
2024/03/12 03:28:43;;;;;;;55.10;25.70;;;13.60;94.60;;;;;;5059478;28;20056;-79
2024/03/12 03:31:10;;;;;;;53.45;26.65;;;13.60;94.70;;;;;;5061207;28;20032;-81
2024/03/12 03:33:40;;;;;;;52.97;25.75;;;13.50;94.70;;;;;;5061233;28;20037;-80
2024/03/12 03:36:08;;;;;;;59.65;26.85;;;13.60;94.70;;;;;;5060057;28;20115;-80
2024/03/12 03:38:39;;;;;;;58.20;27.67;;;13.60;94.60;;;;;;5049850;28;20044;-80
2024/03/12 03:41:06;;;;;;;55.03;25.38;;;13.60;94.60;;;;;;5062395;28;20067;-79
2024/03/12 03:43:34;;;;;;;52.85;27.05;;;13.60;94.60;;;;;;5049928;28;20029;-80
2024/03/12 03:46:00;;;;;;;56.08;26.75;;;13.60;94.60;;;;;;5061172;28;20779;-80
2024/03/12 03:48:26;;;;;;;55.03;25.67;;;13.60;94.60;;;;;;5051104;28;20048;-80
2024/03/12 03:50:51;;;;;;;49.15;22.50;;;13.60;94.60;;;;;;5061268;28;20017;-80
2024/03/12 03:53:17;;;;;;;53.03;24.38;;;13.60;94.60;;;;;;5061904;28;20037;-80
2024/03/12 03:55:43;;;;;;;56.50;26.23;;;13.60;94.60;;;;;;5054409;28;20044;-80
2024/03/12 03:58:09;;;;;;;53.15;25.17;;;13.60;94.70;;;;;;5066109;28;20345;-80
2024/03/12 04:00:36;;;;;;;44.85;21.73;;;13.60;94.80;;;;;;5047622;28;20043;-80
2024/03/12 04:03:03;;;;;;;56.15;26.27;;;13.50;94.90;;;;;;5053609;28;20024;-80
2024/03/12 04:05:29;;;;;;;51.85;23.88;;;13.50;94.90;;;;;;5061803;28;20101;-80
2024/03/12 04:07:54;;;;;;;52.40;26.40;;;13.50;95.00;;;;;;5058693;28;20039;-79
2024/03/12 04:10:22;;;;;;;39.05;17.67;;;13.50;95.20;;;;;;5066389;28;20040;-80
2024/03/12 04:12:48;;;;;;;52.00;25.52;;;13.40;95.20;;;;;;5062532;28;20053;-80
2024/03/12 04:15:18;;;;;;;57.17;25.30;;;13.40;95.30;;;;;;5049877;28;20044;-80
2024/03/12 04:17:43;;;;;;;50.55;20.50;;;13.40;95.30;;;;;;5048538;28;20155;-81
2024/03/12 04:20:10;;;;;;;54.97;24.17;;;13.40;95.40;;;;;;5070132;28;20048;-78
2024/03/12 04:22:43;;;;;;;51.58;21.98;;;13.40;95.40;;;;;;5067193;28;20523;-77
2024/03/12 04:25:09;;;;;;;40.10;19.80;;;13.30;95.50;;;;;;5073371;28;20484;-81
2024/03/12 04:27:36;;;;;;;49.47;20.10;;;13.30;95.70;;;;;;5056917;28;20119;-80
2024/03/12 04:30:09;;;;;;;50.67;21.00;;;13.20;95.70;;;;;;5056364;28;20149;-80
2024/03/12 04:32:35;;;;;;;51.43;19.20;;;13.20;95.80;;;;;;5058342;28;20031;-80
2024/03/12 04:35:04;;;;;;;46.55;19.10;;;13.10;95.90;;;;;;5067877;28;20132;-80
2024/03/12 04:37:32;;;;;;;23.73;10.15;;;13.00;96.10;;;;;;5067015;28;20419;-80
2024/03/12 04:39:59;;;;;;;27.95;12.38;;;13.00;96.30;;;;;;5068257;28;20058;-80
2024/03/12 04:42:27;;;;;;;22.20;8.35;;;12.90;96.50;;;;;;5069077;28;20028;-80
2024/03/12 04:44:59;;;;;;;44.38;18.90;;;12.80;96.60;;;;;;5068492;28;20762;-81
2024/03/12 04:47:24;;;;;;;16.80;8.43;;;12.70;96.70;;;;;;5066624;28;20037;-79
2024/03/12 04:49:51;;;;;;;44.90;14.65;;;12.70;96.90;;;;;;5067848;28;20025;-80
2024/03/12 04:52:17;;;;;;;39.90;17.08;;;12.60;97.00;;;;;;5067359;28;20046;-80
2024/03/12 04:54:46;;;;;;;26.65;13.77;;;12.50;97.00;;;;;;5067366;28;20504;-80
2024/03/12 04:57:11;;;;;;;38.47;17.48;;;12.50;97.10;;;;;;5052583;28;20033;-80
2024/03/12 04:59:37;;;;;;;39.22;14.75;;;12.50;97.20;;;;;;5049068;28;20025;-80
2024/03/12 05:02:03;;;;;;;20.58;9.77;;;12.50;97.30;;;;;;5052086;28;20043;-80
2024/03/12 05:04:29;;;;;;;12.30;4.57;;;12.40;97.20;;;;;;5068338;28;20082;-80
2024/03/12 05:06:54;;;;;;;43.35;18.05;;;12.50;97.40;;;;;;5064967;28;20388;-80
2024/03/12 05:09:20;;;;;;;25.95;13.13;;;12.40;97.40;;;;;;5051210;28;20461;-82
2024/03/12 05:11:46;;;;;;;30.83;15.77;;;12.40;97.40;;;;;;5050589;28;20033;-82
2024/03/12 05:14:11;;;;;;;41.92;15.45;;;12.40;97.50;;;;;;5051537;28;20078;-80
2024/03/12 05:16:37;;;;;;;39.90;21.20;;;12.40;97.50;;;;;;5052178;28;20029;-80
2024/03/12 05:19:03;;;;;;;44.10;16.08;;;12.40;97.50;;;;;;5053930;28;20167;-80
2024/03/12 05:21:28;;;;;;;40.78;19.88;;;12.40;97.40;;;;;;5062018;28;20071;-79
2024/03/12 05:23:55;;;;;;;29.65;13.90;;;12.40;97.40;;;;;;5058141;28;20121;-79
2024/03/12 05:26:26;;;;;;;41.22;17.50;;;12.50;97.50;;;;;;5050815;28;20032;-79
2024/03/12 05:28:58;;;;;;;45.17;19.75;;;12.50;97.50;;;;;;5061631;28;20049;-80
2024/03/12 05:31:37;;;;;;;30.98;16.50;;;12.50;97.40;;;;;;5052503;28;20037;-80
2024/03/12 05:34:03;;;;;;;47.97;19.98;;;12.50;97.40;;;;;;5056073;28;20029;-80
2024/03/12 05:36:41;;;;;;;50.05;21.73;;;12.50;97.30;;;;;;5057206;28;20405;-76
2024/03/12 05:39:18;;;;;;;40.00;19.20;;;12.60;97.30;;;;;;5058204;28;20060;-82
2024/03/12 05:50:11;;;;;;;33.58;16.88;;;12.60;97.10;;;;;;5051723;28;20036;-77
2024/03/12 05:52:37;;;;;;;37.95;15.73;;;12.60;97.10;;;;;;5063954;28;20162;-78
2024/03/12 05:55:04;;;;;;;39.55;18.02;;;12.70;97.10;;;;;;5051993;28;20063;-78
2024/03/12 05:57:33;;;;;;;38.22;16.42;;;12.70;97.00;;;;;;5070748;28;20036;-78
2024/03/12 05:59:59;;;;;;;41.92;19.85;;;12.70;97.00;;;;;;5070278;28;20036;-78
2024/03/12 06:02:26;;;;;;;37.58;16.00;;;12.70;97.00;;;;;;5061505;28;20393;-78
2024/03/12 06:04:52;;;;;;;36.17;17.45;;;12.70;96.90;;;;;;5065576;28;20043;-78
2024/03/12 06:07:18;;;;;;;34.42;17.10;;;12.60;97.00;;;;;;5059412;28;20037;-78
2024/03/12 06:09:44;;;;;;;50.90;21.88;;;12.60;97.00;;;;;;5052683;28;20028;-78
2024/03/12 06:12:09;;;;;;;42.17;20.42;;;12.70;97.00;;;;;;5058204;28;20730;-81
2024/03/12 06:14:36;;;;;;;34.35;16.75;;;12.60;97.00;;;;;;5064608;28;20083;-78
2024/03/12 06:17:01;;;;;;;41.58;19.75;;;12.70;97.00;;;;;;5063212;28;20060;-79
2024/03/12 06:19:30;;;;;;;40.58;20.63;;;12.70;96.90;;;;;;5062000;28;20059;-78
2024/03/12 06:21:56;;;;;;;51.03;21.58;;;12.70;96.90;;;;;;5070169;28;20033;-79
2024/03/12 06:24:22;;;;;;;48.35;21.60;;;12.80;96.80;;;;;;5059515;28;20119;-79
2024/03/12 06:26:48;;;;;;;47.63;22.90;;;12.80;96.80;;;;;;5063385;28;20100;-79
2024/03/12 06:29:17;;;;;;;43.85;22.98;;;12.80;96.70;;;;;;5075089;28;20066;-79
2024/03/12 06:31:44;;;;;;;47.40;20.55;;;12.80;96.70;;;;;;5068196;28;20028;-77
2024/03/12 06:34:10;;;;;;;43.85;20.90;;;12.80;96.60;;;;;;5069395;28;20033;-78
2024/03/12 06:36:37;;;;;;;42.30;19.88;;;12.80;96.60;;;;;;5065869;28;20036;-78
2024/03/12 06:39:05;;;;;;;46.45;22.00;;;12.90;96.60;;;;;;5068284;28;20034;-79
2024/03/12 06:41:31;;;;;;;46.30;20.98;;;12.80;96.60;;;;;;5064471;28;20467;-78
2024/03/12 06:43:59;;;;;;;45.17;19.13;;;12.80;96.60;;;;;;5051131;28;20488;-79
2024/03/12 06:46:25;;;;;;;51.10;18.45;;;12.80;96.60;;;;;;5060614;28;20043;-80
2024/03/12 06:48:52;;;;;;;47.05;23.10;;;12.80;96.60;;;;;;5061172;28;20118;-80
2024/03/12 06:51:18;;;;;;;51.97;23.63;;;12.80;96.70;;;;;;5057707;28;20542;-81
2024/03/12 06:53:44;;;;;;;46.20;19.08;;;12.70;96.60;;;;;;5069999;28;20029;-80
2024/03/12 06:56:11;;;;;;;37.22;17.90;;;12.80;96.70;;;;;;5068684;28;20051;-79
2024/03/12 06:58:44;;;;;;;50.97;21.88;;;12.80;96.70;;;;;;5056459;28;20040;-79
2024/03/12 07:01:11;;;;;;;44.83;20.73;;;12.80;96.70;;;;;;5058616;28;20090;-80
2024/03/12 07:03:39;;;;;;;43.78;23.10;;;12.80;96.70;;;;;;5058931;28;20040;-78
2024/03/12 07:06:07;;;;;;;34.33;15.85;;;12.80;96.70;;;;;;5068279;28;20468;-80
2024/03/12 07:08:33;;;;;;;36.13;18.92;;;12.80;96.70;;;;;;5057670;28;20118;-80
2024/03/12 07:10:59;;;;;;;45.38;24.00;;;12.80;96.60;;;;;;5067671;28;20052;-79
2024/03/12 07:13:26;;;;;;;46.40;22.63;;;12.80;96.70;;;;;;5067832;28;20056;-81
2024/03/12 07:15:51;;;;;;;43.35;21.77;;;12.80;96.70;;;;;;5060545;28;20041;-80
2024/03/12 07:18:20;;;;;;;49.05;20.88;;;12.80;96.60;;;;;;5053308;28;20036;-80
2024/03/12 07:20:46;;;;;;;42.50;21.95;;;12.90;96.60;;;;;;5060058;28;20059;-81
2024/03/12 07:23:13;;;;;;;46.38;21.02;;;12.90;96.60;;;;;;5059235;28;20491;-79
2024/03/12 07:25:39;;;;;;;33.38;17.35;;;12.90;96.60;;;;;;5054578;28;20112;-79
2024/03/12 07:28:08;;;;;;;25.27;12.30;;;12.90;96.60;;;;;;5061351;28;20135;-78
2024/03/12 07:30:34;;;;;;;38.38;18.77;;;12.80;96.90;;;;;;5064299;28;20039;-79
2024/03/12 07:33:03;;;;;;;19.85;9.32;;;12.80;96.70;;;;;;5060940;28;20086;-78
2024/03/12 07:35:29;;;;;;;19.70;12.38;;;12.70;96.80;;;;;;5054485;28;20140;-79
2024/03/12 07:37:55;;;;;;;28.50;15.32;;;12.70;96.90;;;;;;5053496;28;20056;-80
2024/03/12 07:40:22;;;;;;;26.88;15.52;;;12.70;96.90;;;;;;5066593;28;20510;-82
2024/03/12 07:42:49;;;;;;;24.40;13.20;;;12.70;96.90;;;;;;5056838;28;20025;-81
2024/03/12 07:45:16;;;;;;;18.83;10.07;;;12.70;96.90;;;;;;5053367;28;20488;-81
2024/03/12 07:47:42;;;;;;;27.05;14.50;;;12.70;96.90;;;;;;5051901;28;20481;-81
2024/03/12 07:50:11;;;;;;;30.48;16.50;;;12.70;96.90;;;;;;5059901;28;20107;-81
2024/03/12 07:52:37;;;;;;;25.63;14.55;;;12.70;96.90;;;;;;5062453;28;20074;-82
2024/03/12 07:55:03;;;;;;;31.20;18.23;;;12.70;96.90;;;;;;5067828;28;20373;-80
2024/03/12 07:57:31;;;;;;;21.20;12.13;;;12.70;96.90;;;;;;5058675;28;20127;-79
2024/03/12 08:00:04;;;;;;;33.42;16.48;;;12.70;97.00;;;;;;5059381;28;20040;-79
2024/03/12 08:02:31;;;;;;;;;;;12.70;97.10;;;;;;5064146;28;20102;-79
2024/03/12 08:04:57;;;;;;;22.70;11.75;;;12.70;97.10;;;;;;5066049;28;20330;-79
2024/03/12 08:07:23;;;;;;;34.83;16.27;;;12.60;97.00;;;;;;5052702;28;20028;-74
2024/03/12 08:09:49;;;;;;;21.80;10.63;;;12.60;97.10;;;;;;5047949;28;20876;-78
2024/03/12 08:12:19;;;;;;;40.17;16.10;;;12.50;97.10;;;;;;5048795;28;20433;-79
2024/03/12 08:14:45;;;;;;;33.85;16.35;;;12.60;97.20;;;;;;5065368;28;20043;-77
2024/03/12 08:17:14;;;;;;;35.45;15.80;;;12.60;97.20;;;;;;5050700;28;20021;-81
2024/03/12 08:19:42;;;;;;;45.20;15.18;;;12.50;97.30;;;;;;5053588;28;20624;-79
2024/03/12 08:22:08;;;;;;;35.40;10.68;;;12.50;97.30;;;;;;5067628;28;20046;-81
2024/03/12 08:24:38;;;;;;;49.83;19.48;;;12.50;97.30;;;;;;5060494;28;20497;-80
2024/03/12 08:27:05;;;;;;;44.80;18.60;;;12.60;97.30;;;;;;5053976;28;20032;-81
2024/03/12 08:29:31;;;;;;;50.47;20.52;;;12.50;97.30;;;;;;5069140;28;20048;-80
2024/03/12 08:31:58;;;;;;;53.97;23.48;;;12.50;97.30;;;;;;5049398;28;20025;-80
2024/03/12 08:34:24;;;;;;;19.52;9.55;;;12.50;97.30;;;;;;5059441;28;20048;-81
2024/03/12 08:36:50;;;;;;;57.00;21.73;;;12.60;97.30;;;;;;5059647;28;20043;-79
2024/03/12 08:39:15;;;;;;;54.35;21.85;;;12.50;97.30;;;;;;5070268;28;20021;-78
2024/03/12 08:41:42;;;;;;;15.18;8.32;;;12.50;97.40;;;;;;5053575;28;20025;-78
2024/03/12 08:44:13;;;;;;;48.30;16.85;;;12.50;97.40;;;;;;5058623;28;20049;-78
2024/03/12 08:46:39;;;;;;;16.52;7.53;;;12.50;97.50;;;;;;5050272;28;20036;-78
2024/03/12 08:49:05;;;;;;;55.05;22.23;;;12.40;97.50;;;;;;5049051;28;20078;-78
2024/03/12 08:51:36;;;;;;;16.00;7.60;;;12.50;97.60;;;;;;5050708;28;20029;-78
2024/03/12 08:54:04;;;;;;;28.98;10.25;;;12.40;97.50;;;;;;5062691;28;20111;-79
2024/03/12 08:56:30;;;;;;;44.38;13.88;;;12.40;97.60;;;;;;5068349;28;20062;-78
2024/03/12 08:59:02;;;;;;;55.33;21.13;;;12.40;97.70;;;;;;5063245;28;20500;-78
2024/03/12 09:01:28;;;;;;;52.45;19.52;;;12.40;97.70;;;;;;5048590;28;20463;-79
2024/03/12 09:03:54;;;;;;;41.15;15.00;;;12.40;97.80;;;;;;5048564;28;20030;-78
2024/03/12 09:06:22;;;;;;;38.10;16.13;;;12.40;97.80;;;;;;5054063;28;20032;-78
2024/03/12 09:08:50;;;;;;;31.65;13.50;;;12.40;97.80;;;;;;5056960;28;20029;-78
2024/03/12 09:11:20;;;;;;;29.30;11.68;;;12.40;97.80;;;;;;5065548;28;20068;-78
2024/03/12 09:13:46;;;;;;;67.38;26.33;;;12.40;97.90;;;;;;5067778;28;20032;-78
2024/03/12 09:16:13;;;;;;;68.53;29.30;;;12.40;97.90;;;;;;5060119;28;20492;-78
2024/03/12 09:18:43;;;;;;;43.35;17.63;;;12.40;97.80;;;;;;5057781;28;20029;-79
2024/03/12 09:21:10;;;;;;;30.67;10.32;;;12.40;97.90;;;;;;5058859;28;20059;-78
2024/03/12 09:23:36;;;;;;;44.28;15.88;;;12.40;97.90;;;;;;5057693;28;20470;-79
2024/03/12 09:26:06;;;;;;;46.90;16.45;;;12.40;98.00;;;;;;5060286;28;20033;-78
2024/03/12 09:28:32;;;;;;;20.58;11.00;;;12.30;98.00;;;;;;5047982;28;20056;-79
2024/03/12 09:30:58;;;;;;;22.85;12.60;;;12.30;98.00;;;;;;5057286;28;20473;-79
2024/03/12 09:33:26;;;;;;;19.65;11.73;;;12.30;98.10;;;;;;5063026;28;20024;-83
2024/03/12 09:35:53;;;;;;;37.35;14.10;;;12.20;98.10;;;;;;5058524;28;20896;-80
2024/03/12 09:38:19;;;;;;;44.50;17.30;;;12.20;98.30;;;;;;5059733;28;20061;-80
2024/03/12 09:40:52;;;;;;;23.15;11.43;;;12.20;98.30;;;;;;5049539;28;20071;-79
2024/03/12 09:43:20;;;;;;;46.15;16.63;;;12.10;98.40;;;;;;5051069;28;20032;-77
2024/03/12 09:45:46;;;;;;;41.38;15.60;;;12.10;98.60;;;;;;5065918;28;20514;-77
2024/03/12 09:48:15;;;;;;;43.65;10.60;;;12.00;98.60;;;;;;5049775;28;20033;-77
2024/03/12 09:50:42;;;;;;;49.42;18.60;;;12.00;98.80;;;;;;5059747;28;20037;-79
2024/03/12 09:53:11;;;;;;;55.13;17.75;;;12.00;98.80;;;;;;5053073;28;20098;-78
2024/03/12 09:55:41;;;;;;;44.38;16.75;;;12.00;98.90;;;;;;5058405;28;20404;-78
2024/03/12 09:58:07;;;;;;;58.60;19.75;;;12.00;99.00;;;;;;5053717;28;20040;-79
2024/03/12 10:00:34;;;;;;;57.97;17.13;;;12.00;99.10;;;;;;5058372;28;20036;-80
2024/03/12 10:03:00;;;;;;;50.03;18.40;;;12.00;99.10;;;;;;5053615;28;20040;-78
2024/03/12 10:05:27;;;;;;;25.20;9.55;;;12.00;99.10;;;;;;5062635;28;20614;-78
2024/03/12 10:08:12;;;;;;;26.05;8.32;;;12.10;99.10;;;;;;5047476;28;20032;-79
2024/03/12 10:10:51;;;;;;;27.98;9.20;;;12.10;99.10;;;;;;5051619;28;20024;-79
2024/03/12 10:13:17;;;;;;;30.80;9.55;;;12.10;99.00;;;;;;5052157;28;20075;-80
2024/03/12 10:15:59;;;;;;;17.08;7.97;;;12.10;99.00;;;;;;5047864;28;20036;-78
2024/03/12 10:18:30;;;;;;;29.30;10.48;;;12.10;99.00;;;;;;5048955;28;20481;-80
2024/03/12 10:20:57;;;;;;;13.75;4.28;;;12.10;99.00;;;;;;5051999;28;20039;-80
2024/03/12 10:23:25;;;;;;;22.70;10.00;;;12.10;99.00;;;;;;5058839;28;20032;-80
2024/03/12 10:25:52;;;;;;;16.48;6.32;;;12.10;99.10;;;;;;5052957;28;20476;-80
2024/03/12 10:28:27;;;;;;;15.00;8.43;;;12.10;99.00;;;;;;5053593;28;20084;-80
2024/03/12 10:31:08;;;;;;;11.82;5.15;;;12.10;99.10;;;;;;5066224;28;20070;-80
2024/03/12 10:33:36;;;;;;;17.10;7.63;;;12.10;99.10;;;;;;5053663;28;20481;-80
2024/03/12 10:36:03;;;;;;;4.82;3.03;;;12.20;99.00;;;;;;5067367;28;20119;-81
2024/03/12 10:38:32;;;;;;;16.88;7.22;;;12.10;99.00;;;;;;5065472;28;20059;-80
2024/03/12 10:41:12;;;;;;;16.73;7.60;;;12.20;99.00;;;;;;5069651;28;20040;-79
2024/03/12 10:43:38;;;;;;;13.60;5.32;;;12.10;99.00;;;;;;5065600;28;20028;-79
2024/03/12 10:46:05;;;;;;;6.43;3.78;;;12.10;99.00;;;;;;5067498;28;20512;-78
2024/03/12 10:48:35;;;;;;;7.05;3.10;;;12.10;99.10;;;;;;5058111;28;20029;-80
2024/03/12 10:51:04;;;;;;;9.48;4.70;;;12.10;99.10;;;;;;5056680;28;20033;-80
2024/03/12 10:53:30;;;;;;;13.93;5.63;;;12.10;99.20;;;;;;5056508;28;20086;-81
2024/03/12 10:55:58;;;;;;;2.90;2.17;;;12.10;99.20;;;;;;5059720;28;20041;-80
2024/03/12 10:58:26;;;;;;;5.25;2.92;;;12.10;99.20;;;;;;5063611;28;20039;-81
2024/03/12 11:00:53;;;;;;;10.35;5.38;;;12.20;99.20;;;;;;5065988;28;20044;-80
2024/03/12 11:03:23;;;;;;;14.23;5.53;;;12.20;99.10;;;;;;5068401;28;20067;-81
2024/03/12 11:05:54;;;;;;;16.85;6.95;;;12.30;99.10;;;;;;5067502;28;20056;-78
2024/03/12 11:08:20;;;;;;;5.15;4.03;;;12.30;99.10;;;;;;5060359;28;20447;-79
2024/03/12 11:10:47;;;;;;;9.35;4.65;;;12.30;98.90;;;;;;5053840;28;20125;-79
2024/03/12 11:13:16;;;;;;;15.80;6.70;;;12.30;98.90;;;;;;5051378;28;20025;-80
2024/03/12 11:15:42;;;;;;;10.60;4.75;;;12.30;98.90;;;;;;5060374;28;20075;-80
2024/03/12 11:18:09;;;;;;;19.27;8.77;;;12.40;98.90;;;;;;5058154;28;20056;-79
2024/03/12 11:20:41;;;;;;;11.35;4.70;;;12.40;99.10;;;;;;5070422;28;20036;-80
2024/03/12 11:23:07;;;;;;;12.25;5.95;;;12.40;98.80;;;;;;5055348;28;20025;-79
2024/03/12 11:25:45;;;;;;;7.32;3.65;;;12.40;98.70;;;;;;5063368;28;20029;-77
2024/03/12 11:28:27;;;;;;;7.72;5.03;;;12.40;98.70;;;;;;5062560;28;20048;-80
2024/03/12 11:31:04;;;;;;;8.93;3.70;;;12.40;98.80;;;;;;5049370;28;20388;-79
2024/03/12 11:33:38;;;;;;;7.00;2.67;;;12.40;98.80;;;;;;5063981;28;20025;-80
2024/03/12 11:36:19;;;;;;;12.38;6.32;;;12.40;98.80;;;;;;5070498;28;20127;-79
2024/03/12 11:38:46;;;;;;;10.00;5.05;;;12.40;98.80;;;;;;5062386;28;20488;-79
2024/03/12 11:41:13;;;;;;;19.90;7.45;;;12.40;98.70;;;;;;5052944;28;20082;-79
2024/03/12 11:43:41;;;;;;;14.38;5.80;;;12.40;98.70;;;;;;5059985;28;20032;-80
2024/03/12 11:46:20;;;;;;;9.38;4.85;;;12.40;98.80;;;;;;5061357;28;20047;-76
2024/03/12 11:48:47;;;;;;;11.45;5.43;;;12.40;98.80;;;;;;5048491;28;20079;-80
2024/03/12 11:51:13;;;;;;;10.20;4.95;;;12.40;98.80;;;;;;5058095;28;20400;-81
2024/03/12 11:53:45;;;;;;;5.53;3.67;;;12.40;98.80;;;;;;5067421;28;20035;-80
2024/03/12 11:56:18;;;;;;;4.25;2.80;;;12.40;98.80;;;;;;5054434;28;20101;-79
2024/03/12 11:58:51;;;;;;;9.43;4.20;;;12.40;98.70;;;;;;5064590;28;20039;-79
2024/03/12 12:01:24;;;;;;;6.78;4.50;;;12.40;98.70;;;;;;5056754;28;20053;-79
2024/03/12 12:03:59;;;;;;;6.75;3.40;;;12.40;98.70;;;;;;5051386;28;20024;-79
2024/03/12 12:06:25;;;;;;;8.80;5.20;;;12.40;98.60;;;;;;5050092;28;20044;-79
2024/03/12 12:08:51;;;;;;;8.18;4.53;;;12.40;98.60;;;;;;5048394;28;20085;-79
2024/03/12 12:11:20;;;;;;;7.82;3.05;;;12.40;98.70;;;;;;5061928;28;20151;-79
2024/03/12 12:13:47;;;;;;;7.18;3.30;;;12.40;98.70;;;;;;5063090;28;20160;-79
2024/03/12 12:16:19;;;;;;;11.13;6.18;;;12.30;98.80;;;;;;5059860;28;20041;-80
2024/03/12 12:18:45;;;;;;;14.23;5.47;;;12.30;98.70;;;;;;5063221;28;20036;-79
2024/03/12 12:21:16;;;;;;;13.75;6.75;;;12.30;98.70;;;;;;5055994;28;20029;-79
2024/03/12 12:23:44;;;;;;;8.75;3.63;;;12.30;98.70;;;;;;5055755;28;20119;-80
2024/03/12 12:26:38;;;;;;;12.43;3.47;;;12.20;98.90;;;;;;5063516;28;20040;-79
2024/03/12 12:29:05;;;;;;;12.82;5.72;;;12.20;98.90;;;;;;5059569;28;20593;-79
2024/03/12 12:31:36;;;;;;;6.20;2.88;;;12.20;98.90;;;;;;5060133;28;20036;-78
2024/03/12 12:34:05;;;;;;;10.02;5.45;;;12.20;98.90;;;;;;5062899;28;20079;-78
2024/03/12 12:36:38;;;;;;;16.60;5.50;;;12.20;99.00;;;;;;5061285;28;20500;-79
2024/03/12 12:39:09;;;;;;;19.88;8.13;;;12.20;99.00;;;;;;5062046;28;20446;-79
2024/03/12 12:41:38;;;;;;;14.18;5.88;;;12.20;98.90;;;;;;5060619;28;20400;-79